sensor_id;sensor_type;location;lat;lon;timestamp;temperature;humidity
21115;DHT22;10715;48.546;9.896;2022-07-06T00:01:43;10.90;99.90
21115;DHT22;10715;48.546;9.896;2022-07-06T00:04:09;10.90;99.90
21115;DHT22;10715;48.546;9.896;2022-07-06T00:06:35;10.90;99.90
21115;DHT22;10715;48.546;9.896;2022-07-06T00:09:03;10.90;99.90
21115;DHT22;10715;48.546;9.896;2022-07-06T00:11:29;10.80;99.90
21115;DHT22;10715;48.546;9.896;2022-07-06T00:13:55;10.80;99.90
21115;DHT22;10715;48.546;9.896;2022-07-06T00:16:22;10.80;99.90
21115;DHT22;10715;48.546;9.896;2022-07-06T00:18:48;10.80;99.90
21115;DHT22;10715;48.546;9.896;2022-07-06T00:21:14;10.70;99.90
21115;DHT22;10715;48.546;9.896;2022-07-06T00:23:40;10.60;99.90
21115;DHT22;10715;48.546;9.896;2022-07-06T00:26:06;10.60;99.90
21115;DHT22;10715;48.546;9.896;2022-07-06T00:28:31;10.50;99.90
21115;DHT22;10715;48.546;9.896;2022-07-06T00:30:57;10.50;99.90
21115;DHT22;10715;48.546;9.896;2022-07-06T00:33:23;10.50;99.90
21115;DHT22;10715;48.546;9.896;2022-07-06T00:35:49;10.40;99.90
21115;DHT22;10715;48.546;9.896;2022-07-06T00:38:15;10.40;99.90
21115;DHT22;10715;48.546;9.896;2022-07-06T00:40:41;10.40;99.90
21115;DHT22;10715;48.546;9.896;2022-07-06T00:43:07;10.30;99.90
21115;DHT22;10715;48.546;9.896;2022-07-06T00:45:32;10.30;99.90
21115;DHT22;10715;48.546;9.896;2022-07-06T00:47:58;10.30;99.90
21115;DHT22;10715;48.546;9.896;2022-07-06T00:50:24;10.30;99.90
21115;DHT22;10715;48.546;9.896;2022-07-06T00:53:02;10.30;99.90
21115;DHT22;10715;48.546;9.896;2022-07-06T00:55:31;10.30;99.90
21115;DHT22;10715;48.546;9.896;2022-07-06T00:57:57;10.30;99.90
21115;DHT22;10715;48.546;9.896;2022-07-06T01:00:25;10.30;99.90
21115;DHT22;10715;48.546;9.896;2022-07-06T01:02:52;10.30;99.90
21115;DHT22;10715;48.546;9.896;2022-07-06T01:05:21;10.30;99.90
21115;DHT22;10715;48.546;9.896;2022-07-06T01:07:49;10.20;99.90
21115;DHT22;10715;48.546;9.896;2022-07-06T01:10:17;10.20;99.90
21115;DHT22;10715;48.546;9.896;2022-07-06T01:12:47;10.20;99.90
21115;DHT22;10715;48.546;9.896;2022-07-06T01:15:15;10.20;99.90
21115;DHT22;10715;48.546;9.896;2022-07-06T01:17:42;10.10;99.90
21115;DHT22;10715;48.546;9.896;2022-07-06T01:20:10;10.10;99.90
21115;DHT22;10715;48.546;9.896;2022-07-06T01:22:36;10.00;99.90
21115;DHT22;10715;48.546;9.896;2022-07-06T01:25:02;10.00;99.90
21115;DHT22;10715;48.546;9.896;2022-07-06T01:27:28;9.90;99.90
21115;DHT22;10715;48.546;9.896;2022-07-06T01:29:55;9.90;99.90
21115;DHT22;10715;48.546;9.896;2022-07-06T01:32:20;9.80;99.90
21115;DHT22;10715;48.546;9.896;2022-07-06T01:34:46;9.70;99.90
21115;DHT22;10715;48.546;9.896;2022-07-06T01:37:12;9.60;99.90
21115;DHT22;10715;48.546;9.896;2022-07-06T01:39:37;9.60;99.90
21115;DHT22;10715;48.546;9.896;2022-07-06T01:42:03;9.60;99.90
21115;DHT22;10715;48.546;9.896;2022-07-06T01:44:29;9.60;99.90
21115;DHT22;10715;48.546;9.896;2022-07-06T01:46:55;9.60;99.90
21115;DHT22;10715;48.546;9.896;2022-07-06T01:49:22;9.60;99.90
21115;DHT22;10715;48.546;9.896;2022-07-06T01:51:47;9.60;99.90
21115;DHT22;10715;48.546;9.896;2022-07-06T01:54:13;9.60;99.90
21115;DHT22;10715;48.546;9.896;2022-07-06T01:56:39;9.60;99.90
21115;DHT22;10715;48.546;9.896;2022-07-06T01:59:05;9.50;99.90
21115;DHT22;10715;48.546;9.896;2022-07-06T02:01:31;9.50;99.90
21115;DHT22;10715;48.546;9.896;2022-07-06T02:03:59;9.50;99.90
21115;DHT22;10715;48.546;9.896;2022-07-06T02:06:24;9.50;99.90
21115;DHT22;10715;48.546;9.896;2022-07-06T02:08:50;9.50;99.90
21115;DHT22;10715;48.546;9.896;2022-07-06T02:11:17;9.40;99.90
21115;DHT22;10715;48.546;9.896;2022-07-06T02:13:43;9.40;99.90
21115;DHT22;10715;48.546;9.896;2022-07-06T02:16:09;9.40;99.90
21115;DHT22;10715;48.546;9.896;2022-07-06T02:18:34;9.30;99.90
21115;DHT22;10715;48.546;9.896;2022-07-06T02:21:00;9.30;99.90
21115;DHT22;10715;48.546;9.896;2022-07-06T02:23:26;9.30;99.90
21115;DHT22;10715;48.546;9.896;2022-07-06T02:25:52;9.20;99.90
21115;DHT22;10715;48.546;9.896;2022-07-06T02:28:18;9.20;99.90
21115;DHT22;10715;48.546;9.896;2022-07-06T02:30:44;9.20;99.90
21115;DHT22;10715;48.546;9.896;2022-07-06T02:33:10;9.20;99.90
21115;DHT22;10715;48.546;9.896;2022-07-06T02:35:36;9.20;99.90
21115;DHT22;10715;48.546;9.896;2022-07-06T02:38:02;9.20;99.90
21115;DHT22;10715;48.546;9.896;2022-07-06T02:40:28;9.10;99.90
21115;DHT22;10715;48.546;9.896;2022-07-06T02:42:55;9.10;99.90
21115;DHT22;10715;48.546;9.896;2022-07-06T02:45:21;9.10;99.90
21115;DHT22;10715;48.546;9.896;2022-07-06T02:47:47;9.00;99.90
21115;DHT22;10715;48.546;9.896;2022-07-06T02:50:12;9.00;99.90
21115;DHT22;10715;48.546;9.896;2022-07-06T02:52:38;9.00;99.90
21115;DHT22;10715;48.546;9.896;2022-07-06T02:55:04;8.90;99.90
21115;DHT22;10715;48.546;9.896;2022-07-06T02:57:30;8.90;99.90
21115;DHT22;10715;48.546;9.896;2022-07-06T02:59:56;8.90;99.90
21115;DHT22;10715;48.546;9.896;2022-07-06T03:02:21;8.80;99.90
21115;DHT22;10715;48.546;9.896;2022-07-06T03:04:47;8.80;99.90
21115;DHT22;10715;48.546;9.896;2022-07-06T03:07:13;8.80;99.90
21115;DHT22;10715;48.546;9.896;2022-07-06T03:09:38;8.80;99.90
21115;DHT22;10715;48.546;9.896;2022-07-06T03:12:04;8.80;99.90
21115;DHT22;10715;48.546;9.896;2022-07-06T03:14:30;8.80;99.90
21115;DHT22;10715;48.546;9.896;2022-07-06T03:16:56;8.80;99.90
21115;DHT22;10715;48.546;9.896;2022-07-06T03:19:21;8.80;99.90
21115;DHT22;10715;48.546;9.896;2022-07-06T03:21:47;8.80;99.90
21115;DHT22;10715;48.546;9.896;2022-07-06T03:24:13;8.80;99.90
21115;DHT22;10715;48.546;9.896;2022-07-06T03:26:39;8.80;99.90
21115;DHT22;10715;48.546;9.896;2022-07-06T03:29:04;8.80;99.90
21115;DHT22;10715;48.546;9.896;2022-07-06T03:31:30;8.80;99.90
21115;DHT22;10715;48.546;9.896;2022-07-06T03:33:56;8.80;99.90
21115;DHT22;10715;48.546;9.896;2022-07-06T03:36:22;8.80;99.90
21115;DHT22;10715;48.546;9.896;2022-07-06T03:38:48;8.80;99.90
21115;DHT22;10715;48.546;9.896;2022-07-06T03:41:15;8.80;99.90
21115;DHT22;10715;48.546;9.896;2022-07-06T03:43:41;8.80;99.90
21115;DHT22;10715;48.546;9.896;2022-07-06T03:46:06;8.80;99.90
21115;DHT22;10715;48.546;9.896;2022-07-06T03:48:32;8.80;99.90
21115;DHT22;10715;48.546;9.896;2022-07-06T03:50:58;8.80;99.90
21115;DHT22;10715;48.546;9.896;2022-07-06T03:53:24;8.80;99.90
21115;DHT22;10715;48.546;9.896;2022-07-06T03:55:50;8.80;99.90
21115;DHT22;10715;48.546;9.896;2022-07-06T03:58:34;8.80;99.90
21115;DHT22;10715;48.546;9.896;2022-07-06T04:01:00;8.80;99.90
21115;DHT22;10715;48.546;9.896;2022-07-06T04:03:26;8.90;99.90
21115;DHT22;10715;48.546;9.896;2022-07-06T04:05:52;8.90;99.90
21115;DHT22;10715;48.546;9.896;2022-07-06T04:08:18;9.00;99.90
21115;DHT22;10715;48.546;9.896;2022-07-06T04:10:45;9.00;99.90
21115;DHT22;10715;48.546;9.896;2022-07-06T04:13:11;9.00;99.90
21115;DHT22;10715;48.546;9.896;2022-07-06T04:15:37;9.10;99.90
21115;DHT22;10715;48.546;9.896;2022-07-06T04:18:03;9.10;99.90
21115;DHT22;10715;48.546;9.896;2022-07-06T04:20:29;9.10;99.90
21115;DHT22;10715;48.546;9.896;2022-07-06T04:22:55;9.20;99.90
21115;DHT22;10715;48.546;9.896;2022-07-06T04:25:21;9.20;99.90
21115;DHT22;10715;48.546;9.896;2022-07-06T04:27:47;9.30;99.90
21115;DHT22;10715;48.546;9.896;2022-07-06T04:30:13;9.30;99.90
21115;DHT22;10715;48.546;9.896;2022-07-06T04:32:39;9.40;99.90
21115;DHT22;10715;48.546;9.896;2022-07-06T04:35:05;9.50;99.90
21115;DHT22;10715;48.546;9.896;2022-07-06T04:37:32;9.60;99.90
21115;DHT22;10715;48.546;9.896;2022-07-06T04:39:58;9.70;99.90
21115;DHT22;10715;48.546;9.896;2022-07-06T04:42:24;9.70;99.90
21115;DHT22;10715;48.546;9.896;2022-07-06T04:44:50;9.80;99.90
21115;DHT22;10715;48.546;9.896;2022-07-06T04:47:17;9.90;99.90
21115;DHT22;10715;48.546;9.896;2022-07-06T04:49:43;10.10;99.90
21115;DHT22;10715;48.546;9.896;2022-07-06T04:52:09;10.30;99.90
21115;DHT22;10715;48.546;9.896;2022-07-06T04:54:34;10.50;99.90
21115;DHT22;10715;48.546;9.896;2022-07-06T04:57:00;10.80;99.90
21115;DHT22;10715;48.546;9.896;2022-07-06T04:59:26;11.10;99.90
21115;DHT22;10715;48.546;9.896;2022-07-06T05:01:52;11.30;99.90
21115;DHT22;10715;48.546;9.896;2022-07-06T05:04:17;11.50;99.90
21115;DHT22;10715;48.546;9.896;2022-07-06T05:06:46;11.60;99.90
21115;DHT22;10715;48.546;9.896;2022-07-06T05:09:12;11.80;99.90
21115;DHT22;10715;48.546;9.896;2022-07-06T05:11:39;11.90;99.90
21115;DHT22;10715;48.546;9.896;2022-07-06T05:14:05;12.00;99.90
21115;DHT22;10715;48.546;9.896;2022-07-06T05:16:32;12.20;99.90
21115;DHT22;10715;48.546;9.896;2022-07-06T05:18:58;12.40;99.90
21115;DHT22;10715;48.546;9.896;2022-07-06T05:21:24;12.70;99.90
21115;DHT22;10715;48.546;9.896;2022-07-06T05:23:50;13.10;99.90
21115;DHT22;10715;48.546;9.896;2022-07-06T05:26:15;14.20;99.90
21115;DHT22;10715;48.546;9.896;2022-07-06T05:28:41;15.70;99.90
21115;DHT22;10715;48.546;9.896;2022-07-06T05:31:07;17.30;99.90
21115;DHT22;10715;48.546;9.896;2022-07-06T05:33:33;18.80;99.90
21115;DHT22;10715;48.546;9.896;2022-07-06T05:35:58;20.30;99.90
21115;DHT22;10715;48.546;9.896;2022-07-06T05:38:25;21.30;99.90
21115;DHT22;10715;48.546;9.896;2022-07-06T05:40:53;22.10;99.90
21115;DHT22;10715;48.546;9.896;2022-07-06T05:43:18;22.90;99.90
21115;DHT22;10715;48.546;9.896;2022-07-06T05:45:44;23.60;99.90
21115;DHT22;10715;48.546;9.896;2022-07-06T05:48:10;24.20;99.90
21115;DHT22;10715;48.546;9.896;2022-07-06T05:50:54;24.80;99.90
21115;DHT22;10715;48.546;9.896;2022-07-06T05:53:20;25.40;96.00
21115;DHT22;10715;48.546;9.896;2022-07-06T05:55:47;25.70;95.20
21115;DHT22;10715;48.546;9.896;2022-07-06T05:58:15;26.00;93.40
21115;DHT22;10715;48.546;9.896;2022-07-06T06:00:42;26.50;91.70
21115;DHT22;10715;48.546;9.896;2022-07-06T06:03:10;26.60;90.10
21115;DHT22;10715;48.546;9.896;2022-07-06T06:05:36;27.00;85.80
21115;DHT22;10715;48.546;9.896;2022-07-06T06:08:02;27.20;85.90
21115;DHT22;10715;48.546;9.896;2022-07-06T06:10:27;27.60;83.50
21115;DHT22;10715;48.546;9.896;2022-07-06T06:12:53;27.90;81.30
21115;DHT22;10715;48.546;9.896;2022-07-06T06:15:19;28.30;77.70
21115;DHT22;10715;48.546;9.896;2022-07-06T06:17:45;28.30;75.00
21115;DHT22;10715;48.546;9.896;2022-07-06T06:20:13;27.80;75.40
21115;DHT22;10715;48.546;9.896;2022-07-06T06:25:17;27.80;74.10
21115;DHT22;10715;48.546;9.896;2022-07-06T06:27:44;28.00;74.60
21115;DHT22;10715;48.546;9.896;2022-07-06T06:30:11;27.70;73.10
21115;DHT22;10715;48.546;9.896;2022-07-06T06:32:37;27.90;72.50
21115;DHT22;10715;48.546;9.896;2022-07-06T06:35:04;28.00;73.20
21115;DHT22;10715;48.546;9.896;2022-07-06T06:37:30;28.20;71.40
21115;DHT22;10715;48.546;9.896;2022-07-06T06:39:56;28.50;70.30
21115;DHT22;10715;48.546;9.896;2022-07-06T06:42:21;28.70;68.20
21115;DHT22;10715;48.546;9.896;2022-07-06T06:44:47;28.00;68.90
21115;DHT22;10715;48.546;9.896;2022-07-06T06:47:13;27.90;70.20
21115;DHT22;10715;48.546;9.896;2022-07-06T06:49:38;28.00;69.20
21115;DHT22;10715;48.546;9.896;2022-07-06T06:52:04;28.30;68.80
21115;DHT22;10715;48.546;9.896;2022-07-06T06:54:30;28.50;67.10
21115;DHT22;10715;48.546;9.896;2022-07-06T06:56:56;28.60;65.20
21115;DHT22;10715;48.546;9.896;2022-07-06T06:59:22;28.50;66.80
21115;DHT22;10715;48.546;9.896;2022-07-06T07:01:47;29.00;65.40
21115;DHT22;10715;48.546;9.896;2022-07-06T07:04:13;29.10;64.10
21115;DHT22;10715;48.546;9.896;2022-07-06T07:06:39;29.30;63.80
21115;DHT22;10715;48.546;9.896;2022-07-06T07:09:05;29.50;62.50
21115;DHT22;10715;48.546;9.896;2022-07-06T07:11:31;29.80;61.40
21115;DHT22;10715;48.546;9.896;2022-07-06T07:13:57;29.20;59.90
21115;DHT22;10715;48.546;9.896;2022-07-06T07:16:23;29.10;60.90
21115;DHT22;10715;48.546;9.896;2022-07-06T07:18:52;29.10;61.30
21115;DHT22;10715;48.546;9.896;2022-07-06T07:21:18;29.30;61.60
21115;DHT22;10715;48.546;9.896;2022-07-06T07:23:44;29.70;61.00
21115;DHT22;10715;48.546;9.896;2022-07-06T07:26:10;30.20;61.20
21115;DHT22;10715;48.546;9.896;2022-07-06T07:28:35;30.50;59.00
21115;DHT22;10715;48.546;9.896;2022-07-06T07:31:01;30.90;58.50
21115;DHT22;10715;48.546;9.896;2022-07-06T07:33:27;30.60;58.60
21115;DHT22;10715;48.546;9.896;2022-07-06T07:35:53;30.90;58.10
21115;DHT22;10715;48.546;9.896;2022-07-06T07:38:19;31.20;57.80
21115;DHT22;10715;48.546;9.896;2022-07-06T07:40:45;31.50;56.00
21115;DHT22;10715;48.546;9.896;2022-07-06T07:43:10;31.60;56.10
21115;DHT22;10715;48.546;9.896;2022-07-06T07:45:36;31.30;56.00
21115;DHT22;10715;48.546;9.896;2022-07-06T07:48:03;30.90;56.00
21115;DHT22;10715;48.546;9.896;2022-07-06T07:50:28;30.80;55.80
21115;DHT22;10715;48.546;9.896;2022-07-06T07:52:55;30.90;55.60
21115;DHT22;10715;48.546;9.896;2022-07-06T07:55:21;31.10;56.00
21115;DHT22;10715;48.546;9.896;2022-07-06T07:57:46;31.40;55.10
21115;DHT22;10715;48.546;9.896;2022-07-06T08:00:13;30.90;54.20
21115;DHT22;10715;48.546;9.896;2022-07-06T08:02:39;30.40;55.20
21115;DHT22;10715;48.546;9.896;2022-07-06T08:05:07;30.70;55.40
21115;DHT22;10715;48.546;9.896;2022-07-06T08:07:33;30.20;54.80
21115;DHT22;10715;48.546;9.896;2022-07-06T08:09:59;30.20;55.50
21115;DHT22;10715;48.546;9.896;2022-07-06T08:12:24;31.20;55.40
21115;DHT22;10715;48.546;9.896;2022-07-06T08:14:51;31.70;54.10
21115;DHT22;10715;48.546;9.896;2022-07-06T08:17:16;32.10;52.50
21115;DHT22;10715;48.546;9.896;2022-07-06T08:19:42;32.60;52.60
21115;DHT22;10715;48.546;9.896;2022-07-06T08:22:08;32.90;52.40
21115;DHT22;10715;48.546;9.896;2022-07-06T08:24:35;33.50;51.30
21115;DHT22;10715;48.546;9.896;2022-07-06T08:27:01;33.80;50.70
21115;DHT22;10715;48.546;9.896;2022-07-06T08:29:27;33.90;50.80
21115;DHT22;10715;48.546;9.896;2022-07-06T08:31:53;34.10;49.90
21115;DHT22;10715;48.546;9.896;2022-07-06T08:34:19;34.30;49.80
21115;DHT22;10715;48.546;9.896;2022-07-06T08:36:44;34.00;49.30
21115;DHT22;10715;48.546;9.896;2022-07-06T08:39:10;34.10;48.30
21115;DHT22;10715;48.546;9.896;2022-07-06T08:41:37;34.20;50.10
21115;DHT22;10715;48.546;9.896;2022-07-06T08:44:04;34.60;48.60
21115;DHT22;10715;48.546;9.896;2022-07-06T08:46:31;34.30;49.20
21115;DHT22;10715;48.546;9.896;2022-07-06T08:48:57;34.40;48.80
21115;DHT22;10715;48.546;9.896;2022-07-06T08:51:24;34.30;47.90
21115;DHT22;10715;48.546;9.896;2022-07-06T08:53:50;34.60;48.60
21115;DHT22;10715;48.546;9.896;2022-07-06T08:56:18;34.60;48.20
21115;DHT22;10715;48.546;9.896;2022-07-06T08:58:44;34.40;47.70
21115;DHT22;10715;48.546;9.896;2022-07-06T09:01:11;34.30;47.90
21115;DHT22;10715;48.546;9.896;2022-07-06T09:03:40;34.60;48.00
21115;DHT22;10715;48.546;9.896;2022-07-06T09:06:06;35.20;47.70
21115;DHT22;10715;48.546;9.896;2022-07-06T09:08:33;35.20;47.10
21115;DHT22;10715;48.546;9.896;2022-07-06T09:11:00;34.60;46.40
21115;DHT22;10715;48.546;9.896;2022-07-06T09:13:26;35.10;47.50
21115;DHT22;10715;48.546;9.896;2022-07-06T09:15:52;35.60;47.00
21115;DHT22;10715;48.546;9.896;2022-07-06T09:18:17;35.90;47.50
21115;DHT22;10715;48.546;9.896;2022-07-06T09:20:43;36.30;45.90
21115;DHT22;10715;48.546;9.896;2022-07-06T09:23:09;36.90;45.70
21115;DHT22;10715;48.546;9.896;2022-07-06T09:25:36;36.90;44.70
21115;DHT22;10715;48.546;9.896;2022-07-06T09:28:02;36.80;44.30
21115;DHT22;10715;48.546;9.896;2022-07-06T09:30:29;36.30;43.50
21115;DHT22;10715;48.546;9.896;2022-07-06T09:32:57;35.30;44.50
21115;DHT22;10715;48.546;9.896;2022-07-06T09:38:13;36.00;45.70
21115;DHT22;10715;48.546;9.896;2022-07-06T09:40:41;36.60;40.70
21115;DHT22;10715;48.546;9.896;2022-07-06T09:43:21;36.70;42.30
21115;DHT22;10715;48.546;9.896;2022-07-06T09:45:52;37.00;43.80
21115;DHT22;10715;48.546;9.896;2022-07-06T09:48:23;37.40;42.10
21115;DHT22;10715;48.546;9.896;2022-07-06T09:50:57;37.20;41.10
21115;DHT22;10715;48.546;9.896;2022-07-06T09:53:25;35.80;41.30
21115;DHT22;10715;48.546;9.896;2022-07-06T09:55:56;35.40;44.50
21115;DHT22;10715;48.546;9.896;2022-07-06T09:58:23;35.70;43.70
21115;DHT22;10715;48.546;9.896;2022-07-06T10:00:49;36.10;42.90
21115;DHT22;10715;48.546;9.896;2022-07-06T10:03:16;35.90;41.30
21115;DHT22;10715;48.546;9.896;2022-07-06T10:05:47;35.90;41.30
21115;DHT22;10715;48.546;9.896;2022-07-06T10:08:15;36.10;42.60
21115;DHT22;10715;48.546;9.896;2022-07-06T10:10:42;36.00;41.60
21115;DHT22;10715;48.546;9.896;2022-07-06T10:13:10;35.90;42.50
21115;DHT22;10715;48.546;9.896;2022-07-06T10:15:38;35.90;42.90
21115;DHT22;10715;48.546;9.896;2022-07-06T10:18:06;36.20;41.90
21115;DHT22;10715;48.546;9.896;2022-07-06T10:20:33;36.50;43.10
21115;DHT22;10715;48.546;9.896;2022-07-06T10:23:03;36.80;42.40
21115;DHT22;10715;48.546;9.896;2022-07-06T10:25:29;37.20;42.10
21115;DHT22;10715;48.546;9.896;2022-07-06T10:27:57;37.40;42.10
21115;DHT22;10715;48.546;9.896;2022-07-06T10:30:23;37.20;40.90
21115;DHT22;10715;48.546;9.896;2022-07-06T10:32:50;37.20;41.70
21115;DHT22;10715;48.546;9.896;2022-07-06T10:35:18;37.50;40.50
21115;DHT22;10715;48.546;9.896;2022-07-06T10:37:45;37.50;41.10
21115;DHT22;10715;48.546;9.896;2022-07-06T10:40:13;36.70;41.70
21115;DHT22;10715;48.546;9.896;2022-07-06T10:43:02;36.60;42.30
21115;DHT22;10715;48.546;9.896;2022-07-06T10:48:17;36.40;42.60
21115;DHT22;10715;48.546;9.896;2022-07-06T10:50:54;36.40;42.00
21115;DHT22;10715;48.546;9.896;2022-07-06T10:53:27;36.70;41.00
21115;DHT22;10715;48.546;9.896;2022-07-06T10:55:55;37.00;42.30
21115;DHT22;10715;48.546;9.896;2022-07-06T10:58:50;37.20;39.70
21115;DHT22;10715;48.546;9.896;2022-07-06T11:01:18;37.20;38.90
21115;DHT22;10715;48.546;9.896;2022-07-06T11:06:19;37.30;40.30
21115;DHT22;10715;48.546;9.896;2022-07-06T11:08:49;37.10;40.10
21115;DHT22;10715;48.546;9.896;2022-07-06T11:11:23;36.60;40.70
21115;DHT22;10715;48.546;9.896;2022-07-06T11:14:13;36.60;40.50
21115;DHT22;10715;48.546;9.896;2022-07-06T11:19:19;35.20;42.90
21115;DHT22;10715;48.546;9.896;2022-07-06T11:21:47;34.20;43.80
21115;DHT22;10715;48.546;9.896;2022-07-06T11:24:18;34.40;44.40
21115;DHT22;10715;48.546;9.896;2022-07-06T11:26:46;34.20;43.00
21115;DHT22;10715;48.546;9.896;2022-07-06T11:29:13;33.40;44.30
21115;DHT22;10715;48.546;9.896;2022-07-06T11:31:41;31.90;48.10
21115;DHT22;10715;48.546;9.896;2022-07-06T11:34:09;30.80;49.90
21115;DHT22;10715;48.546;9.896;2022-07-06T11:36:36;29.60;51.50
21115;DHT22;10715;48.546;9.896;2022-07-06T11:39:03;28.60;53.20
21115;DHT22;10715;48.546;9.896;2022-07-06T11:41:31;27.90;54.90
21115;DHT22;10715;48.546;9.896;2022-07-06T11:43:57;27.30;56.00
21115;DHT22;10715;48.546;9.896;2022-07-06T11:46:27;26.80;57.50
21115;DHT22;10715;48.546;9.896;2022-07-06T11:49:00;26.50;57.90
21115;DHT22;10715;48.546;9.896;2022-07-06T11:51:28;26.10;58.30
21115;DHT22;10715;48.546;9.896;2022-07-06T11:53:57;25.80;58.70
21115;DHT22;10715;48.546;9.896;2022-07-06T11:56:26;25.40;60.00
21115;DHT22;10715;48.546;9.896;2022-07-06T11:58:59;25.10;60.10
21115;DHT22;10715;48.546;9.896;2022-07-06T12:01:27;24.90;62.20
21115;DHT22;10715;48.546;9.896;2022-07-06T12:03:57;24.80;63.00
21115;DHT22;10715;48.546;9.896;2022-07-06T12:06:24;24.60;62.20
21115;DHT22;10715;48.546;9.896;2022-07-06T12:11:21;23.80;64.80
21115;DHT22;10715;48.546;9.896;2022-07-06T12:13:49;23.60;63.70
21115;DHT22;10715;48.546;9.896;2022-07-06T12:16:16;23.50;65.40
21115;DHT22;10715;48.546;9.896;2022-07-06T12:18:44;23.60;64.80
21115;DHT22;10715;48.546;9.896;2022-07-06T12:21:17;23.70;64.80
21115;DHT22;10715;48.546;9.896;2022-07-06T12:23:52;23.80;66.30
21115;DHT22;10715;48.546;9.896;2022-07-06T12:26:22;24.00;67.20
21115;DHT22;10715;48.546;9.896;2022-07-06T12:29:02;24.20;64.90
21115;DHT22;10715;48.546;9.896;2022-07-06T12:31:32;24.20;63.50
21115;DHT22;10715;48.546;9.896;2022-07-06T12:33:59;24.00;62.30
21115;DHT22;10715;48.546;9.896;2022-07-06T12:36:25;23.80;64.60
21115;DHT22;10715;48.546;9.896;2022-07-06T12:38:51;23.80;64.00
21115;DHT22;10715;48.546;9.896;2022-07-06T12:41:34;23.80;64.30
21115;DHT22;10715;48.546;9.896;2022-07-06T12:44:02;23.60;63.50
21115;DHT22;10715;48.546;9.896;2022-07-06T12:46:30;23.60;65.40
21115;DHT22;10715;48.546;9.896;2022-07-06T12:48:59;23.60;64.50
21115;DHT22;10715;48.546;9.896;2022-07-06T12:51:26;23.70;64.00
21115;DHT22;10715;48.546;9.896;2022-07-06T12:53:52;23.70;64.10
21115;DHT22;10715;48.546;9.896;2022-07-06T12:56:18;23.80;61.80
21115;DHT22;10715;48.546;9.896;2022-07-06T12:59:00;23.90;62.70
21115;DHT22;10715;48.546;9.896;2022-07-06T13:01:26;24.10;62.40
21115;DHT22;10715;48.546;9.896;2022-07-06T13:03:56;24.30;62.50
21115;DHT22;10715;48.546;9.896;2022-07-06T13:06:33;24.20;63.10
21115;DHT22;10715;48.546;9.896;2022-07-06T13:08:59;24.00;63.60
21115;DHT22;10715;48.546;9.896;2022-07-06T13:11:25;23.80;65.00
21115;DHT22;10715;48.546;9.896;2022-07-06T13:13:51;23.80;66.10
21115;DHT22;10715;48.546;9.896;2022-07-06T13:16:17;23.80;66.50
21115;DHT22;10715;48.546;9.896;2022-07-06T13:18:43;23.80;66.00
21115;DHT22;10715;48.546;9.896;2022-07-06T13:21:09;23.80;64.50
21115;DHT22;10715;48.546;9.896;2022-07-06T13:23:36;23.80;65.60
21115;DHT22;10715;48.546;9.896;2022-07-06T13:26:02;23.80;64.60
21115;DHT22;10715;48.546;9.896;2022-07-06T13:28:28;23.90;64.70
21115;DHT22;10715;48.546;9.896;2022-07-06T13:30:54;24.00;63.20
21115;DHT22;10715;48.546;9.896;2022-07-06T13:33:20;23.90;65.30
21115;DHT22;10715;48.546;9.896;2022-07-06T13:35:45;23.90;66.00
21115;DHT22;10715;48.546;9.896;2022-07-06T13:38:11;23.90;65.50
21115;DHT22;10715;48.546;9.896;2022-07-06T13:40:37;24.00;65.70
21115;DHT22;10715;48.546;9.896;2022-07-06T13:43:02;24.10;65.40
21115;DHT22;10715;48.546;9.896;2022-07-06T13:45:28;24.20;65.40
21115;DHT22;10715;48.546;9.896;2022-07-06T13:47:54;24.20;65.60
21115;DHT22;10715;48.546;9.896;2022-07-06T13:50:20;24.10;65.70
21115;DHT22;10715;48.546;9.896;2022-07-06T13:52:46;24.00;66.20
21115;DHT22;10715;48.546;9.896;2022-07-06T13:55:12;24.10;67.30
21115;DHT22;10715;48.546;9.896;2022-07-06T13:57:38;24.30;68.00
21115;DHT22;10715;48.546;9.896;2022-07-06T14:00:07;24.30;66.90
21115;DHT22;10715;48.546;9.896;2022-07-06T14:02:33;24.30;66.00
21115;DHT22;10715;48.546;9.896;2022-07-06T14:04:58;24.00;67.10
21115;DHT22;10715;48.546;9.896;2022-07-06T14:07:24;23.90;68.20
21115;DHT22;10715;48.546;9.896;2022-07-06T14:09:50;23.90;66.50
21115;DHT22;10715;48.546;9.896;2022-07-06T14:12:17;24.00;68.40
21115;DHT22;10715;48.546;9.896;2022-07-06T14:14:43;24.20;68.80
21115;DHT22;10715;48.546;9.896;2022-07-06T14:17:09;24.40;67.90
21115;DHT22;10715;48.546;9.896;2022-07-06T14:19:34;24.50;66.90
21115;DHT22;10715;48.546;9.896;2022-07-06T14:22:00;24.60;67.70
21115;DHT22;10715;48.546;9.896;2022-07-06T14:24:26;24.70;66.90
21115;DHT22;10715;48.546;9.896;2022-07-06T14:26:52;24.70;66.80
21115;DHT22;10715;48.546;9.896;2022-07-06T14:29:17;24.30;67.90
21115;DHT22;10715;48.546;9.896;2022-07-06T14:31:43;23.80;69.10
21115;DHT22;10715;48.546;9.896;2022-07-06T14:34:09;23.30;71.40
21115;DHT22;10715;48.546;9.896;2022-07-06T14:36:35;23.00;70.90
21115;DHT22;10715;48.546;9.896;2022-07-06T14:39:03;22.80;71.80
21115;DHT22;10715;48.546;9.896;2022-07-06T14:41:29;22.90;73.40
21115;DHT22;10715;48.546;9.896;2022-07-06T14:43:55;22.80;72.90
21115;DHT22;10715;48.546;9.896;2022-07-06T14:46:21;22.80;72.70
21115;DHT22;10715;48.546;9.896;2022-07-06T14:48:47;22.90;73.10
21115;DHT22;10715;48.546;9.896;2022-07-06T14:51:12;23.00;72.30
21115;DHT22;10715;48.546;9.896;2022-07-06T14:53:38;23.10;73.30
21115;DHT22;10715;48.546;9.896;2022-07-06T14:56:04;23.30;72.80
21115;DHT22;10715;48.546;9.896;2022-07-06T14:58:30;23.50;73.20
21115;DHT22;10715;48.546;9.896;2022-07-06T15:00:56;23.70;71.60
21115;DHT22;10715;48.546;9.896;2022-07-06T15:03:22;23.70;71.00
21115;DHT22;10715;48.546;9.896;2022-07-06T15:05:48;23.60;72.00
21115;DHT22;10715;48.546;9.896;2022-07-06T15:08:14;23.60;72.40
21115;DHT22;10715;48.546;9.896;2022-07-06T15:10:42;23.40;71.80
21115;DHT22;10715;48.546;9.896;2022-07-06T15:13:08;23.20;73.70
21115;DHT22;10715;48.546;9.896;2022-07-06T15:15:35;23.20;73.40
21115;DHT22;10715;48.546;9.896;2022-07-06T15:18:00;23.10;74.30
21115;DHT22;10715;48.546;9.896;2022-07-06T15:20:26;23.20;74.40
21115;DHT22;10715;48.546;9.896;2022-07-06T15:22:52;23.10;72.90
21115;DHT22;10715;48.546;9.896;2022-07-06T15:25:18;22.90;75.20
21115;DHT22;10715;48.546;9.896;2022-07-06T15:27:45;22.80;73.60
21115;DHT22;10715;48.546;9.896;2022-07-06T15:30:13;22.70;74.10
21115;DHT22;10715;48.546;9.896;2022-07-06T15:32:39;22.70;73.50
21115;DHT22;10715;48.546;9.896;2022-07-06T15:35:07;22.60;73.80
21115;DHT22;10715;48.546;9.896;2022-07-06T15:37:33;22.70;73.60
21115;DHT22;10715;48.546;9.896;2022-07-06T15:40:00;22.70;74.40
21115;DHT22;10715;48.546;9.896;2022-07-06T15:42:26;22.60;75.20
21115;DHT22;10715;48.546;9.896;2022-07-06T15:44:52;22.60;75.30
21115;DHT22;10715;48.546;9.896;2022-07-06T15:47:18;22.80;75.50
21115;DHT22;10715;48.546;9.896;2022-07-06T15:49:48;22.80;75.90